Impacts METAR Board
IDs:

KVRB - Vero Beach Muni, FL, US

Updated at: 1000 UTC 28 Sep 2021
Potential Impact None Slight Moderate High
Time 27/22Z 27/23Z 28/00Z 28/01Z 28/02Z 28/03Z 28/04Z 28/05Z 28/06Z 28/07Z 28/08Z 28/09Z 28/10Z
Temp84 82 80 79 79 78 78 71 69 68 67 67 67
Dewpt65 65 64 64 63 64 62 63 64 65 64 64 64
Altim30.05 30.05 30.07 30.07 30.08 30.08 30.06 30.05 30.03 30.02 30.01 30.01 30.02
VIS10 10 10 10 10 10 10 10 10 10 10 10 10
CIG-- -- -- -- -- -- -- -- -- -- -- -- --
CoverCLRSCTFEWCLRCLRCLRCLRCLRCLRCLRCLRCLRCLR
FltCatVFRVFRVFRVFRVFRVFRVFRVFRVFRVFRVFRVFRVFR
WX--------------------------
WDir60604050505050000000
WSpd10 7 7 6 6 5 5 0 0 0 0 0 0
WGst-- -- -- -- -- -- -- -- -- -- -- -- --
Raw hourly METARs
KVRB 272153Z 06010KT 10SM CLR 29/18 A3005 RMK AO2 SLP175 T02890183
KVRB 272253Z 06007KT 10SM SCT044 28/18 A3005 RMK AO2 SLP175 T02780183
KVRB 272353Z 04007KT 10SM FEW047 27/18 A3007 RMK AO2 SLP180 T02670178 10311 20267 53007
KVRB 280053Z 05006KT 10SM CLR 26/18 A3007 RMK AO2 SLP182 T02610178
KVRB 280153Z AUTO 05006KT 10SM CLR 26/17 A3008 RMK AO2 SLP186 T02610172
KVRB 280253Z AUTO 05005KT 10SM CLR 26/18 A3008 RMK AO2 SLP183 T02560178 50003
KVRB 280353Z AUTO 05005KT 10SM CLR 26/17 A3006 RMK AO2 SLP179 T02560167
KVRB 280453Z AUTO 00000KT 10SM CLR 22/17 A3005 RMK AO2 SLP175 T02170172 403110189
KVRB 280553Z AUTO 00000KT 10SM CLR 21/18 A3003 RMK AO2 SLP169 T02060178 10272 20200 58014
KVRB 280653Z AUTO 00000KT 10SM CLR 20/18 A3002 RMK AO2 SLP164 T02000183
KVRB 280753Z AUTO 00000KT 10SM CLR 19/18 A3001 RMK AO2 SLP160 T01940178
KVRB 280853Z AUTO 00000KT 10SM CLR 19/18 A3001 RMK AO2 SLP161 T01940178 55008
KVRB 280953Z AUTO 00000KT 10SM CLR 19/18 A3002 RMK AO2 SLP165 T01940178



Page loaded:  10:37 UTC  |   03:37 AM Pacific  |   04:37 AM Mountain  |   05:37 AM Central  |   06:37 AM Eastern

 

ADVISORIES

FORECASTS

FORECASTS

OBSERVATIONS

USER TOOLS

ABOUT US